罗盘
风向 的 风向 210° Hoogeveen Airport 9/27
风: 5 kt, 2 beaufort

2 kt

4 kt
改变
0 1.000 2.000 3.000 4.000 5.000
N/A
METAR ETWM 191820Z AUTO 21005KT //// // ////// 19/18 Q1018 ///

METAR Hoogeveen Airport

Hoogeveen Airport是Hoogeveen,荷兰中的小机场。 该机场有一条跑道: 9/27.

这份报告是针对2022年5月19日 20:20, 当地时间在Meppen Air Base进行的。

机场观察

风向为210°,速度为5 kt。

温度和风寒是19 °C。 露点为18 °C,相对湿度为94%。 海平面上的气压为1018 hPa (QNH)。

白天

今天,太阳从05:30升起,在21:30降落。 这适用于Hoogeveen Airport,世界夏令时可能有所不同。 当地时间与世界标准时间之间的时差为+2 小时。 夏令时目前正在进行中。

公司介绍

在这个机场,你可以找到跳伞中心, 飞行俱乐部 和 飞行学校。 这个机场上的公司有Vliegles.nl, MVVH, Airbet, Egmond Vintage Wings 和 Vliegclub Hoogeveen。

体会

你可以在这个机场与经验丰富的教练进行双人跳伞。 这些跳伞包括自由落体。 在Hoogeveen Airport进行跳伞的费用是€ 199。 在这里预订Skydive Hoogeveen

您会帮助我们保持Metar-Taf.com正常运行吗?
您的贡献有助于网站的进一步开发并支付费用。

没有更多广告

您是捐款5美元还是更多?然后,我们将永远不会再向您展示广告,这是我们永恒的感谢!
捐赠前先登录

跑道

Id 标题 侧风 逆风
9/27 092°-272° 4 kt 2 kt

逆风成分最大的方向会被突出显示,并用于横风计算。 这并不一定意味着这个方向在使用。

乌云

0 ft

温度 & 天气

温度 19 °C
露点 18 °C
相对湿度 94%
Kp-index 2  

公司介绍

新增公司

下载我们的应用程序

在您的手机和平板电脑上轻松访问所有航空天气。
有许多网站上没有的功能,如离线支持和个人机场列表。

Studio Eveline

Benalmádena
España

我们和第三方通过cookies跟踪您在我们网站上的上网行为。如果您继续,我们认为您同意我们的cookie政策。 了解更多